createdAt,value
2022-11-12T00:10:39.546Z,8.37
2022-11-12T00:25:57.321Z,8.32
2022-11-12T00:41:15.374Z,8.41
2022-11-12T00:56:35.610Z,8.39
2022-11-12T01:11:48.582Z,8.34
2022-11-12T01:27:05.906Z,8.33
2022-11-12T01:42:23.119Z,8.37
2022-11-12T01:57:40.717Z,8.42
2022-11-12T02:12:57.640Z,8.30
2022-11-12T02:28:15.815Z,8.19
2022-11-12T02:43:33.308Z,8.17
2022-11-12T02:58:51.134Z,8.08
2022-11-12T03:29:40.486Z,7.99
2022-11-12T03:44:57.882Z,8.00
2022-11-12T04:00:22.741Z,7.96
2022-11-12T04:15:31.944Z,7.91
2022-11-12T04:30:48.157Z,7.78
2022-11-12T04:46:06.457Z,7.84
2022-11-12T05:01:23.701Z,7.85
2022-11-12T05:16:41.747Z,7.93
2022-11-12T05:31:59.115Z,7.86
2022-11-12T05:47:16.833Z,7.92
2022-11-12T06:02:33.481Z,7.80
2022-11-12T06:17:50.148Z,7.76
2022-11-12T06:33:06.939Z,7.82
2022-11-12T06:48:24.872Z,7.77
2022-11-12T07:03:41.246Z,7.80
2022-11-12T07:18:58.530Z,7.72
2022-11-12T07:34:15.987Z,7.78
2022-11-12T07:49:34.077Z,7.80
2022-11-12T08:04:30.240Z,7.87
2022-11-12T08:19:21.543Z,7.79
2022-11-12T08:34:18.678Z,7.80
2022-11-12T08:49:09.483Z,7.89
2022-11-12T09:04:00.433Z,7.89
2022-11-12T09:18:50.722Z,8.03
2022-11-12T09:33:42.339Z,8.02
2022-11-12T09:48:33.483Z,8.08
2022-11-12T10:03:45.897Z,8.07
2022-11-12T10:18:51.270Z,8.21
2022-11-12T10:33:46.495Z,8.25
2022-11-12T10:48:37.447Z,8.27
2022-11-12T11:03:31.332Z,8.35
2022-11-12T11:18:25.636Z,8.36
2022-11-12T11:33:25.704Z,8.43
2022-11-12T11:48:38.900Z,8.38
2022-11-12T12:03:53.319Z,8.39
2022-11-12T12:19:01.919Z,8.57
2022-11-12T12:33:57.590Z,8.56
2022-11-12T12:48:49.106Z,8.50
2022-11-12T13:03:42.659Z,8.47
2022-11-12T13:18:39.163Z,8.40
2022-11-12T13:33:33.104Z,8.34
2022-11-12T13:48:39.645Z,8.30
2022-11-12T14:03:45.462Z,8.30
2022-11-12T14:18:59.503Z,8.35
2022-11-12T14:33:56.297Z,8.33
2022-11-12T14:48:48.314Z,8.42
2022-11-12T15:03:39.463Z,8.46
2022-11-12T15:18:30.963Z,8.48
2022-11-12T15:33:24.460Z,8.51
2022-11-12T15:48:19.233Z,8.56
2022-11-12T16:03:21.743Z,8.58
2022-11-12T16:18:17.096Z,8.50
2022-11-12T16:33:08.681Z,8.55
2022-11-12T16:48:14.280Z,8.56
2022-11-12T17:03:08.794Z,8.62
2022-11-12T17:18:00.358Z,8.63
2022-11-12T17:32:52.456Z,8.63
2022-11-12T17:47:43.922Z,8.74
2022-11-12T18:02:34.450Z,8.73
2022-11-12T18:17:25.158Z,8.70
2022-11-12T18:32:16.771Z,8.69
2022-11-12T19:02:12.040Z,8.60
2022-11-12T19:17:03.486Z,8.42
2022-11-12T19:31:54.936Z,8.33
2022-11-12T19:46:47.370Z,8.19
2022-11-12T20:01:41.213Z,8.08
2022-11-12T20:16:33.087Z,7.97
2022-11-12T20:31:24.814Z,7.94
2022-11-12T20:46:22.011Z,7.85
2022-11-12T21:01:25.208Z,7.88
2022-11-12T21:16:15.561Z,7.82
2022-11-12T21:31:06.413Z,7.86
2022-11-12T21:45:57.444Z,7.82
2022-11-12T22:01:08.604Z,7.77
2022-11-12T22:16:26.546Z,7.86
2022-11-12T22:31:25.974Z,7.73
2022-11-12T22:46:19.213Z,7.71
2022-11-12T23:01:10.362Z,7.66
2022-11-12T23:16:01.192Z,7.57
2022-11-12T23:30:55.929Z,9.87
2022-11-12T23:45:46.191Z,9.13
